Time;durP1;ratioP1;P1;durP2;ratioP2;P2;SDS_P1;SDS_P2;PMS_P1;PMS_P2;Temp;Humidity;BMP_temperature;BMP_pressure;BME280_temperature;BME280_humidity;BME280_pressure;Samples;Min_cycle;Max_cycle;Signal;HPM_P1;HPM_P2
2022/01/23 00:00:34;;;;;;;;;44.75;37.75;;;;;6.35;77.78;103139.69;5000405;28;45322;-76
2022/01/23 00:03:02;;;;;;;;;46.75;38.75;;;;;6.36;77.25;103130.81;4982485;28;45374;-75
2022/01/23 00:05:41;;;;;;;;;37.00;34.25;;;;;6.36;77.73;103136.94;4982627;28;45271;-75
2022/01/23 00:08:07;;;;;;;;;39.25;34.50;;;;;6.25;77.96;103124.34;5000158;28;45310;-75
2022/01/23 00:10:33;;;;;;;;;41.75;36.00;;;;;6.27;77.99;103125.13;5000190;28;45916;-75
2022/01/23 00:13:25;;;;;;;;;47.25;35.00;;;;;6.32;77.75;103130.16;5000397;28;45329;-75
2022/01/23 00:18:34;;;;;;;;;37.50;35.00;;;;;6.38;77.55;103148.25;4999644;28;45163;-75
2022/01/23 00:21:00;;;;;;;;;40.75;34.50;;;;;6.37;77.94;103141.28;4982545;28;47213;-75
2022/01/23 00:31:33;;;;;;;;;44.00;35.00;;;;;6.25;77.99;103132.25;4999825;28;45751;-75
2022/01/23 00:33:59;;;;;;;;;43.75;36.50;;;;;6.22;77.68;103131.59;4999844;28;45283;-75
2022/01/23 00:36:26;;;;;;;;;40.25;35.50;;;;;6.28;78.58;103144.44;5000091;28;45286;-76
2022/01/23 00:38:52;;;;;;;;;33.50;31.50;;;;;6.27;78.20;103140.09;4982143;28;45486;-75
2022/01/23 00:41:18;;;;;;;;;41.25;35.75;;;;;6.18;78.15;103123.84;4980959;28;47314;-75
2022/01/23 00:43:45;;;;;;;;;41.25;35.50;;;;;6.22;78.42;103131.59;4999997;28;45234;-75
2022/01/23 00:46:23;;;;;;;;;38.50;34.75;;;;;6.19;78.12;103120.25;5000102;28;45408;-75
2022/01/23 00:49:23;;;;;;;;;31.00;29.00;;;;;6.24;78.05;103132.34;4999564;28;45271;-75
2022/01/23 00:51:38;;;;;;;;;31.25;30.25;;;;;6.20;77.83;103118.47;4999546;28;45436;-76
2022/01/23 00:54:09;;;;;;;;;37.50;34.50;;;;;6.25;78.47;103126.97;4999587;28;45286;-75
2022/01/23 00:56:35;;;;;;;;;40.25;35.00;;;;;6.19;78.45;103114.13;4999910;28;45543;-75
2022/01/23 00:59:01;;;;;;;;;39.00;31.75;;;;;6.22;78.07;103116.59;4999596;28;46409;-75
2022/01/23 01:01:27;;;;;;;;;45.00;35.50;;;;;6.16;78.03;103095.81;4999502;28;45400;-75
2022/01/23 01:03:52;;;;;;;;;32.25;28.00;;;;;6.26;78.25;103112.00;4999465;28;45228;-75
2022/01/23 01:06:18;;;;;;;;;41.25;35.25;;;;;6.25;78.41;103107.63;4999766;28;45270;-75
2022/01/23 01:08:46;;;;;;;;;44.50;38.50;;;;;6.14;78.07;103095.88;4999517;28;45488;-75
2022/01/23 01:35:35;;;;;;;;;33.25;31.75;;;;;6.04;78.35;103103.50;4999096;28;45361;-75
2022/01/23 01:38:00;;;;;;;;;34.00;32.25;;;;;6.03;78.76;103092.97;4999362;28;45202;-76
2022/01/23 01:40:26;;;;;;;;;48.25;40.00;;;;;6.12;79.04;103107.47;4981208;28;47364;-75
2022/01/23 01:42:52;;;;;;;;;43.25;36.25;;;;;6.06;78.42;103108.69;4999073;28;46294;-75
2022/01/23 01:45:26;;;;;;;;;46.25;37.50;;;;;6.00;78.95;103106.34;4999368;28;45523;-75
2022/01/23 01:47:54;;;;;;;;;48.50;36.50;;;;;5.94;78.48;103095.22;4999091;28;45313;-75
2022/01/23 01:50:20;;;;;;;;;45.50;36.75;;;;;5.99;78.80;103102.03;4981366;28;45269;-75
2022/01/23 01:52:46;;;;;;;;;40.50;34.00;;;;;5.91;78.93;103087.47;4982918;28;48438;-75
2022/01/23 01:55:18;;;;;;;;;39.50;36.00;;;;;5.93;78.38;103098.75;5002418;28;45230;-75
2022/01/23 01:57:52;;;;;;;;;39.50;34.00;;;;;5.88;78.57;103087.63;5002488;28;45333;-75
2022/01/23 02:08:24;;;;;;;;;44.75;34.00;;;;;5.89;79.18;103081.41;5002048;28;45338;-75
2022/01/23 02:10:55;;;;;;;;;46.50;39.25;;;;;5.92;79.14;103083.00;5002029;28;45289;-75
2022/01/23 02:13:30;;;;;;;;;46.00;36.00;;;;;5.96;78.89;103088.97;5002375;28;45332;-75
2022/01/23 02:51:05;;;;;;;;;50.00;37.25;;;;;5.98;79.21;103056.28;5001593;28;45466;-75
2022/01/23 02:55:58;;;;;;;;;36.50;33.75;;;;;5.99;78.80;103054.50;5001205;28;45165;-75
2022/01/23 02:58:31;;;;;;;;;38.00;33.25;;;;;5.96;79.05;103046.75;4983854;28;45263;-74
2022/01/23 03:03:58;;;;;;;;;33.75;31.50;;;;;5.87;79.04;103041.03;4990477;28;45271;-75
2022/01/23 03:25:42;;;;;;;;;38.50;32.50;;;;;5.88;79.51;103026.91;5000659;28;45336;-75
2022/01/23 03:28:05;;;;;;;;;36.00;31.00;;;;;5.95;79.69;103035.31;4992629;28;46822;-76
2022/01/23 03:30:18;;;;;;;;;42.00;36.75;;;;;5.88;79.32;103015.50;5000237;28;45462;-75
2022/01/23 03:32:47;;;;;;;;;37.25;33.50;;;;;5.93;79.48;103022.22;4982996;28;45385;-75
2022/01/23 03:35:14;;;;;;;;;44.25;35.75;;;;;5.88;79.63;103015.50;5000844;28;45178;-75
2022/01/23 03:37:39;;;;;;;;;36.00;33.25;;;;;5.89;79.59;103017.19;4983059;28;47096;-75
2022/01/23 03:40:06;;;;;;;;;42.50;34.50;;;;;5.87;79.58;103012.00;5000675;28;45237;-75
2022/01/23 03:42:34;;;;;;;;;45.25;36.00;;;;;5.88;79.58;103011.09;5000970;28;45259;-75
2022/01/23 03:45:26;;;;;;;;;38.75;34.00;;;;;5.93;79.53;103021.38;5000651;28;45488;-75
2022/01/23 03:50:32;;;;;;;;;44.50;29.75;;;;;5.86;80.01;103015.59;5000600;28;45248;-75
2022/01/23 03:52:57;;;;;;;;;38.75;34.75;;;;;5.81;80.34;103010.56;5000823;28;45272;-75
2022/01/23 03:55:22;;;;;;;;;35.00;29.75;;;;;5.82;80.48;103000.88;5000497;28;45484;-75
2022/01/23 03:57:48;;;;;;;;;31.25;30.75;;;;;5.79;79.94;102995.75;5015654;28;47205;-75
2022/01/23 04:00:16;;;;;;;;;37.50;32.75;;;;;5.80;80.09;103006.22;5000571;28;45203;-75
2022/01/23 04:02:42;;;;;;;;;35.00;29.50;;;;;5.87;80.48;103022.56;5000452;28;45317;-75
2022/01/23 04:05:08;;;;;;;;;31.00;28.00;;;;;5.80;80.59;103014.16;5000380;28;45570;-75
2022/01/23 04:07:35;;;;;;;;;36.00;31.50;;;;;5.83;80.66;103022.84;5000332;28;45361;-75
2022/01/23 04:10:00;;;;;;;;;37.25;31.25;;;;;5.83;80.86;103028.13;4982328;28;45288;-75
2022/01/23 04:18:29;;;;;;;;;30.75;26.25;;;;;5.80;80.69;103021.22;4999761;28;45996;-75
2022/01/23 04:34:11;;;;;;;;;27.25;23.75;;;;;5.64;79.58;103013.31;4999973;28;45387;-75
2022/01/23 05:01:05;;;;;;;;;20.00;16.33;;;;;5.83;79.97;103033.41;4999514;28;45302;-75
2022/01/23 05:06:22;;;;;;;;;17.67;15.00;;;;;5.78;79.82;103034.50;4999583;28;45425;-75
2022/01/23 05:08:48;;;;;;;;;17.67;16.00;;;;;5.77;79.88;103024.88;4999485;28;45330;-75
2022/01/23 05:11:14;;;;;;;;;19.00;17.00;;;;;5.76;79.66;103025.81;4999402;28;46204;-75
2022/01/23 05:13:39;;;;;;;;;17.00;12.67;;;;;5.71;79.58;103027.03;4981801;28;45325;-75
2022/01/23 05:16:05;;;;;;;;;15.00;13.00;;;;;5.80;79.26;103050.22;4999741;28;45286;-75
2022/01/23 05:18:34;;;;;;;;;14.00;12.00;;;;;5.69;79.67;103030.56;4999181;28;45463;-75
2022/01/23 05:21:12;;;;;;;;;14.00;12.67;;;;;5.70;79.46;103028.81;4999718;28;45291;-75
2022/01/23 05:23:37;;;;;;;;;18.33;15.67;;;;;5.73;79.51;103023.34;4999389;28;45464;-75
2022/01/23 05:26:02;;;;;;;;;13.33;12.00;;;;;5.78;79.66;103034.50;4999415;28;45236;-75
2022/01/23 05:28:28;;;;;;;;;18.00;17.33;;;;;5.69;79.42;103012.09;4984252;28;47290;-75
2022/01/23 05:30:53;;;;;;;;;15.33;14.67;;;;;5.76;79.73;103031.09;4984841;28;47199;-75
2022/01/23 05:33:19;;;;;;;;;18.00;17.00;;;;;5.76;79.37;103032.88;5002845;28;45293;-75
2022/01/23 05:35:44;;;;;;;;;17.00;15.00;;;;;5.76;79.81;103032.88;5002909;28;45440;-75
2022/01/23 05:38:09;;;;;;;;;18.00;17.00;;;;;5.72;80.04;103021.63;4984943;28;46029;-75
2022/01/23 05:40:35;;;;;;;;;17.67;16.67;;;;;5.73;80.07;103018.06;5002589;28;46126;-75
2022/01/23 05:43:00;;;;;;;;;14.00;14.00;;;;;5.78;79.86;103031.03;5000837;28;45417;-75
2022/01/23 05:45:26;;;;;;;;;14.33;13.00;;;;;5.79;79.73;103027.44;4984349;28;45448;-75
2022/01/23 05:47:51;;;;;;;;;18.33;12.67;;;;;5.69;79.97;103012.09;5001703;28;45165;-75
2022/01/23 05:50:17;;;;;;;;;18.67;15.67;;;;;5.77;79.50;103030.16;5016996;28;45296;-75
2022/01/23 05:52:42;;;;;;;;;14.67;12.67;;;;;5.74;79.50;103029.47;5022482;28;45246;-75
2022/01/23 05:55:08;;;;;;;;;13.67;13.33;;;;;5.73;79.21;103038.31;5022454;28;45291;-75
2022/01/23 05:57:33;;;;;;;;;15.67;12.33;;;;;5.75;79.59;103042.56;5022407;28;45450;-75
2022/01/23 05:59:58;;;;;;;;;14.33;12.67;;;;;5.75;79.51;103041.75;5022201;28;45378;-75
2022/01/23 06:02:24;;;;;;;;;15.67;12.00;;;;;5.76;79.05;103043.44;5022303;28;45212;-76
2022/01/23 06:04:49;;;;;;;;;14.67;14.67;;;;;5.67;78.84;103027.19;5022132;28;45281;-75
2022/01/23 06:07:15;;;;;;;;;14.33;14.33;;;;;5.56;78.67;103019.88;5003023;28;46547;-75
2022/01/23 06:09:41;;;;;;;;;22.00;15.33;;;;;5.57;79.50;103020.72;5021701;28;45427;-75
2022/01/23 06:12:07;;;;;;;;;12.67;12.33;;;;;5.64;78.93;103034.41;5022187;28;45396;-75
2022/01/23 06:14:33;;;;;;;;;13.67;13.67;;;;;5.69;78.78;103045.56;5022086;28;45328;-75
2022/01/23 06:16:58;;;;;;;;;15.33;12.67;;;;;5.60;78.93;103033.72;5021945;28;45316;-75
2022/01/23 06:19:23;;;;;;;;;17.00;15.00;;;;;5.49;79.19;103015.00;5001841;28;46562;-75
2022/01/23 06:21:49;;;;;;;;;13.33;13.33;;;;;5.54;79.02;103018.25;5002203;28;45332;-76
2022/01/23 06:24:26;;;;;;;;;18.33;16.67;;;;;5.54;78.56;103028.81;5002128;28;45304;-75
2022/01/23 06:26:54;;;;;;;;;20.00;17.00;;;;;5.59;78.92;103033.84;5002349;28;45318;-75
2022/01/23 06:29:21;;;;;;;;;21.00;17.00;;;;;5.60;78.63;103036.34;5001790;28;45281;-75
2022/01/23 06:31:48;;;;;;;;;19.00;16.67;;;;;5.55;78.50;103027.84;5001986;28;45334;-75
2022/01/23 06:34:15;;;;;;;;;18.00;17.00;;;;;5.51;78.85;103018.41;5001799;28;45258;-75
2022/01/23 06:36:41;;;;;;;;;16.33;14.33;;;;;5.49;78.64;103020.28;5002007;28;45255;-75
2022/01/23 06:39:09;;;;;;;;;16.00;16.00;;;;;5.33;78.76;102997.41;5000358;28;45244;-76
2022/01/23 06:41:35;;;;;;;;;17.00;16.33;;;;;5.52;78.48;103031.53;5001912;28;45276;-75
2022/01/23 06:44:01;;;;;;;;;19.00;14.00;;;;;5.41;78.47;103029.47;5002398;28;45251;-76
2022/01/23 06:46:27;;;;;;;;;15.33;14.33;;;;;5.44;78.35;103028.44;5001762;28;45365;-77
2022/01/23 06:48:52;;;;;;;;;28.00;21.67;;;;;5.49;78.52;103036.97;5015500;28;45348;-78
2022/01/23 06:51:18;;;;;;;;;20.67;17.67;;;;;5.41;78.73;103037.38;5004618;28;45541;-76
2022/01/23 06:53:43;;;;;;;;;16.00;15.67;;;;;5.48;78.41;103045.78;5005407;28;45314;-76
2022/01/23 06:56:09;;;;;;;;;17.67;17.00;;;;;5.33;78.47;103018.50;5019530;28;46225;-76
2022/01/23 06:58:34;;;;;;;;;19.33;17.00;;;;;5.44;78.52;103039.00;5002039;28;46007;-78
2022/01/23 07:01:00;;;;;;;;;16.33;15.33;;;;;5.34;78.27;103029.88;5006463;28;45310;-76
2022/01/23 07:03:25;;;;;;;;;19.67;17.00;;;;;5.33;78.26;103034.31;5003401;28;45349;-77
2022/01/23 07:05:51;;;;;;;;;23.33;19.33;;;;;5.37;78.63;103048.19;5001739;28;45426;-78
2022/01/23 07:08:16;;;;;;;;;16.00;13.33;;;;;5.40;78.60;103054.16;5016781;28;48255;-78
2022/01/23 07:10:41;;;;;;;;;17.00;14.00;;;;;5.41;78.47;103049.69;5002294;28;44672;-78
2022/01/23 07:13:07;;;;;;;;;14.33;13.00;;;;;5.43;78.55;103058.41;5002034;28;45208;-78
2022/01/23 07:15:32;;;;;;;;;12.33;12.33;;;;;5.42;78.66;103036.44;5017031;28;45940;-77
2022/01/23 07:17:58;;;;;;;;;16.67;13.67;;;;;5.47;78.61;103043.25;5000255;28;47685;-78
2022/01/23 07:20:23;;;;;;;;;18.33;16.00;;;;;5.48;78.53;103047.59;5004775;28;45228;-78
2022/01/23 07:22:49;;;;;;;;;16.67;15.00;;;;;5.41;78.80;103040.00;5004487;28;45702;-76
2022/01/23 07:25:14;;;;;;;;;21.00;17.00;;;;;5.51;78.39;103047.44;5000985;28;45230;-76
2022/01/23 07:27:47;;;;;;;;;18.00;15.33;;;;;5.40;78.74;103034.81;4999088;28;46268;-76
2022/01/23 07:30:26;;;;;;;;;16.67;15.67;;;;;5.41;78.86;103037.38;5004017;28;45276;-77
2022/01/23 07:32:51;;;;;;;;;17.67;17.67;;;;;5.38;78.45;103029.63;5001029;28;45406;-76
2022/01/23 07:35:17;;;;;;;;;18.33;13.00;;;;;5.47;78.90;103043.25;5001038;28;45420;-76
2022/01/23 07:37:42;;;;;;;;;22.67;19.00;;;;;5.50;78.74;103051.00;4999471;28;47749;-76
2022/01/23 07:40:08;;;;;;;;;19.67;18.00;;;;;5.48;78.95;103042.31;4983112;28;45380;-76
2022/01/23 07:42:34;;;;;;;;;28.00;27.50;;;;;5.48;78.76;103042.31;4999698;28;45389;-75
2022/01/23 07:45:04;;;;;;;;;23.00;18.00;;;;;5.56;78.94;103050.66;4997868;28;45437;-75
2022/01/23 07:47:29;;;;;;;;;18.33;17.00;;;;;5.55;78.62;103057.75;4997992;28;45421;-76
2022/01/23 07:49:55;;;;;;;;;22.33;18.33;;;;;5.58;78.87;103069.91;4979968;28;45309;-75
2022/01/23 07:52:20;;;;;;;;;11.33;11.00;;;;;5.51;78.61;103053.53;4998465;28;45528;-75
2022/01/23 07:54:47;;;;;;;;;23.00;19.33;;;;;5.50;78.88;103053.63;4998580;28;45328;-76
2022/01/23 07:57:12;;;;;;;;;18.67;14.67;;;;;5.61;78.45;103068.88;4998874;28;46091;-75
2022/01/23 07:59:38;;;;;;;;;18.67;17.00;;;;;5.60;78.44;103062.75;5000671;28;45325;-75
2022/01/23 08:02:04;;;;;;;;;26.00;21.50;;;;;5.53;78.48;103070.16;4999003;28;45616;-75
2022/01/23 08:04:29;;;;;;;;;23.00;19.00;;;;;5.53;78.55;103077.19;4999861;28;45421;-75
2022/01/23 08:07:11;;;;;;;;;27.67;19.33;;;;;5.47;78.26;103072.25;5000079;28;45407;-76
2022/01/23 08:09:37;;;;;;;;;20.00;17.67;;;;;5.43;78.26;103083.00;5000109;28;45445;-77
2022/01/23 08:12:03;;;;;;;;;20.00;18.50;;;;;5.33;78.41;103075.66;5000145;28;45386;-77
2022/01/23 08:14:28;;;;;;;;;18.00;15.00;;;;;5.30;78.61;103074.03;5000467;28;45273;-76
2022/01/23 08:16:54;;;;;;;;;20.67;18.33;;;;;5.35;78.59;103084.31;5000492;28;45305;-77
2022/01/23 08:19:19;;;;;;;;;17.67;17.00;;;;;5.36;78.53;103089.50;4982021;28;45459;-77
2022/01/23 08:21:45;;;;;;;;;20.00;17.00;;;;;5.36;78.51;103081.59;4980839;28;45333;-76
2022/01/23 08:24:11;;;;;;;;;14.67;13.67;;;;;5.34;78.31;103077.34;4980438;28;45511;-77
2022/01/23 08:26:37;;;;;;;;;14.33;14.33;;;;;5.40;78.59;103093.72;4979233;28;48067;-76
2022/01/23 08:29:03;;;;;;;;;17.00;15.75;;;;;5.43;78.18;103095.31;4981554;28;45237;-77
2022/01/23 08:31:29;;;;;;;;;12.75;10.00;;;;;5.33;78.42;103073.00;5000333;28;45296;-76
2022/01/23 08:33:54;;;;;;;;;14.33;14.33;;;;;5.39;78.19;103089.34;4999997;28;45221;-76
2022/01/23 08:36:19;;;;;;;;;18.00;15.00;;;;;5.36;78.51;103080.75;5000059;28;45910;-77
2022/01/23 08:38:45;;;;;;;;;21.25;18.25;;;;;5.34;78.31;103083.47;5000139;28;45248;-76
2022/01/23 08:43:55;;;;;;;;;9.33;8.33;;;;;5.39;78.21;103093.78;4999974;28;45283;-76
2022/01/23 08:46:21;;;;;;;;;21.75;18.00;;;;;5.41;78.48;103089.28;4999840;28;46064;-76
2022/01/23 08:48:46;;;;;;;;;18.33;17.00;;;;;5.40;78.67;103075.25;4999960;28;45274;-75
2022/01/23 08:51:12;;;;;;;;;16.00;15.67;;;;;5.51;78.13;103095.75;5000167;28;45906;-76
2022/01/23 08:53:38;;;;;;;;;17.33;15.00;;;;;5.50;78.27;103101.97;4999865;28;45405;-76
2022/01/23 08:56:05;;;;;;;;;18.33;17.00;;;;;5.48;78.20;103093.28;4999777;28;45400;-76
2022/01/23 08:58:30;;;;;;;;;14.33;13.33;;;;;5.46;78.35;103081.97;4999712;28;45321;-76
2022/01/23 09:00:56;;;;;;;;;16.33;13.00;;;;;5.59;78.66;103097.16;4999803;28;45372;-76
2022/01/23 09:03:21;;;;;;;;;16.00;15.33;;;;;5.51;78.36;103084.38;4998842;28;45523;-76
2022/01/23 09:05:46;;;;;;;;;11.00;10.67;;;;;5.56;78.24;103096.38;4999749;28;45307;-77
2022/01/23 09:08:12;;;;;;;;;22.50;17.50;;;;;5.58;78.63;103096.28;4982000;28;45168;-76
2022/01/23 09:10:42;;;;;;;;;15.50;14.25;;;;;5.55;77.99;103088.53;4999705;28;45259;-76
2022/01/23 09:13:28;;;;;;;;;16.67;13.33;;;;;5.67;78.51;103108.13;4999764;28;45466;-76
2022/01/23 09:15:54;;;;;;;;;13.00;13.00;;;;;5.63;78.48;103090.78;4999480;28;46065;-76
2022/01/23 09:18:19;;;;;;;;;16.67;15.33;;;;;5.68;78.86;103101.91;4999225;28;45326;-76
2022/01/23 09:20:44;;;;;;;;;18.67;15.33;;;;;5.64;78.21;103095.97;4999672;28;45686;-76
2022/01/23 09:23:10;;;;;;;;;18.00;18.00;;;;;5.68;77.48;103104.53;4981612;28;46355;-76
2022/01/23 09:25:35;;;;;;;;;21.00;18.00;;;;;5.64;77.68;103113.56;4981332;28;47303;-77
2022/01/23 09:28:07;;;;;;;;;14.67;12.67;;;;;5.60;78.41;103112.88;4999447;28;45317;-76
2022/01/23 09:30:36;;;;;;;;;20.00;17.67;;;;;5.64;78.10;103109.16;4999398;28;45320;-76
2022/01/23 09:33:02;;;;;;;;;17.00;14.67;;;;;5.55;78.23;103099.94;4999127;28;45336;-76
2022/01/23 09:35:28;;;;;;;;;19.75;17.50;;;;;5.46;77.80;103089.03;4999227;28;45334;-76
2022/01/23 09:37:53;;;;;;;;;17.67;15.00;;;;;5.42;78.38;103089.19;4981501;28;45791;-76
2022/01/23 09:40:18;;;;;;;;;17.67;15.33;;;;;5.50;78.06;103096.69;4999338;28;45278;-76
2022/01/23 09:42:50;;;;;;;;;16.67;12.67;;;;;5.50;78.49;103095.84;4999266;28;45208;-76
2022/01/23 09:45:17;;;;;;;;;16.67;13.67;;;;;5.56;78.18;103111.34;4999285;28;45336;-76
2022/01/23 09:47:43;;;;;;;;;16.00;14.67;;;;;5.51;78.44;103093.13;4998977;28;45275;-76
2022/01/23 09:50:11;;;;;;;;;16.33;15.33;;;;;5.54;78.34;103097.41;4999307;28;45302;-76
2022/01/23 09:52:38;;;;;;;;;17.25;15.50;;;;;5.57;78.06;103126.25;4981271;28;47077;-76
2022/01/23 09:55:10;;;;;;;;;19.33;18.00;;;;;5.55;78.27;103113.13;4998911;28;45305;-76
2022/01/23 09:57:38;;;;;;;;;13.75;13.75;;;;;5.40;78.11;103093.72;4997644;28;45832;-76
2022/01/23 10:00:08;;;;;;;;;21.50;20.00;;;;;5.49;78.21;103118.75;4999221;28;45377;-76
2022/01/23 10:02:33;;;;;;;;;18.25;16.00;;;;;5.46;78.36;103099.56;4980808;28;46247;-76
2022/01/23 10:04:59;;;;;;;;;19.00;18.50;;;;;5.51;78.38;103111.56;4981256;28;47266;-76
2022/01/23 10:07:24;;;;;;;;;17.00;15.50;;;;;5.49;78.25;103109.97;4999056;28;45308;-76
2022/01/23 10:09:56;;;;;;;;;18.00;16.50;;;;;5.46;77.94;103108.34;4998765;28;45411;-77
2022/01/23 10:12:26;;;;;;;;;12.67;11.67;;;;;5.42;78.06;103110.28;4999103;28;45319;-76
2022/01/23 10:14:56;;;;;;;;;13.00;12.00;;;;;5.45;78.06;103108.44;5002058;28;46151;-77
2022/01/23 10:17:21;;;;;;;;;15.67;13.33;;;;;5.43;77.40;103108.50;4998842;28;46061;-76
2022/01/23 10:19:47;;;;;;;;;13.00;12.67;;;;;5.48;77.99;103119.66;5000987;28;45512;-76
2022/01/23 10:22:14;;;;;;;;;17.33;15.33;;;;;5.53;77.98;103114.13;4984410;28;46319;-76
2022/01/23 10:24:40;;;;;;;;;19.00;13.33;;;;;5.49;77.64;103117.88;5004455;28;47148;-76
2022/01/23 10:27:06;;;;;;;;;17.67;16.67;;;;;5.36;77.87;103086.03;5011956;28;45673;-76
2022/01/23 10:29:37;;;;;;;;;13.67;11.67;;;;;5.46;77.66;103107.50;5015343;28;45384;-77
2022/01/23 10:32:18;;;;;;;;;12.00;11.67;;;;;5.46;77.59;103104.84;4999461;28;45242;-78
2022/01/23 10:34:54;;;;;;;;;14.00;13.67;;;;;5.48;77.57;103108.28;5000310;28;45409;-77
2022/01/23 10:37:37;;;;;;;;;18.33;14.00;;;;;5.51;78.28;103097.56;4999937;28;45408;-77
2022/01/23 10:40:09;;;;;;;;;16.00;12.33;;;;;5.57;77.94;103099.88;4995089;28;45485;-76
2022/01/23 10:50:51;;;;;;;;;18.00;16.00;;;;;5.60;78.00;103090.94;5001442;28;45538;-77
2022/01/23 10:53:16;;;;;;;;;17.33;12.00;;;;;5.63;77.37;103086.31;4998556;28;45683;-78
2022/01/23 10:55:43;;;;;;;;;16.67;15.00;;;;;5.60;76.76;103075.94;5000550;28;46016;-77
2022/01/23 10:58:21;;;;;;;;;14.33;14.33;;;;;5.64;77.57;103085.41;4984025;28;45318;-75
2022/01/23 11:00:47;;;;;;;;;18.00;13.33;;;;;5.63;77.51;103072.28;4999462;28;45251;-78
2022/01/23 11:03:24;;;;;;;;;20.25;17.50;;;;;5.78;77.46;103097.00;5000310;28;45671;-76
2022/01/23 11:05:51;;;;;;;;;17.33;13.67;;;;;5.71;77.76;103074.53;4998477;28;46373;-79
2022/01/23 11:08:23;;;;;;;;;23.00;16.00;;;;;5.76;77.63;103078.59;5008097;28;45416;-77
2022/01/23 11:11:08;;;;;;;;;13.67;11.67;;;;;5.74;77.36;103075.19;5012750;28;45386;-78
2022/01/23 11:19:26;;;;;;;;;16.67;15.00;;;;;5.80;77.50;103076.63;5007815;28;45195;-79
2022/01/23 11:21:53;;;;;;;;;16.67;15.00;;;;;5.73;77.34;103059.44;4986412;28;45303;-78
2022/01/23 11:24:22;;;;;;;;;25.67;17.33;;;;;5.83;77.47;103065.91;5001661;28;45253;-79
2022/01/23 11:26:47;;;;;;;;;17.67;16.33;;;;;5.82;77.24;103053.66;5001652;28;46140;-79
2022/01/23 11:29:17;;;;;;;;;15.00;14.33;;;;;5.88;76.99;103058.59;5001487;28;45176;-78
2022/01/23 11:31:44;;;;;;;;;15.67;14.67;;;;;5.83;76.83;103060.63;5003653;28;45307;-77
2022/01/23 11:34:14;;;;;;;;;17.67;15.33;;;;;5.79;77.13;103056.47;4983012;28;47047;-77
2022/01/23 11:36:40;;;;;;;;;22.00;18.33;;;;;5.84;77.18;103057.06;5000869;28;45320;-79
2022/01/23 11:39:14;;;;;;;;;21.00;17.00;;;;;5.84;76.91;103051.78;4983045;28;45267;-78
2022/01/23 11:50:46;;;;;;;;;22.67;18.00;;;;;5.57;76.92;102986.44;5000675;28;45339;-78
2022/01/23 11:56:31;;;;;;;;;23.33;19.00;;;;;5.92;77.08;103039.00;5000386;28;45563;-78
2022/01/23 11:59:16;;;;;;;;;22.67;18.33;;;;;5.93;76.92;103027.50;4998865;28;46267;-78
2022/01/23 12:01:44;;;;;;;;;18.00;17.00;;;;;5.98;77.31;103029.03;4985976;28;45387;-78
2022/01/23 12:04:34;;;;;;;;;;;;;;;;;;;;;
2022/01/23 12:07:10;;;;;;;;;23.00;19.67;;;;;6.06;77.13;103026.84;5006809;28;73178;-78
2022/01/23 12:09:35;;;;;;;;;27.50;24.25;;;;;6.11;77.45;103026.56;4990045;28;47359;-78
2022/01/23 12:12:05;;;;;;;;;24.75;21.75;;;;;6.15;77.14;103025.44;4999757;28;45473;-78
2022/01/23 12:17:06;;;;;;;;;39.75;35.25;;;;;6.05;76.49;103006.66;4999905;28;45326;-78
2022/01/23 12:19:55;;;;;;;;;16.25;14.00;;;;;6.09;76.79;103009.97;5000027;28;46197;-80
2022/01/23 12:22:24;;;;;;;;;41.00;34.00;;;;;6.01;76.80;102987.47;4977373;28;45362;-79
2022/01/23 12:24:52;;;;;;;;;26.75;23.50;;;;;6.04;76.64;102989.09;4982441;28;45370;-80
2022/01/23 12:27:28;;;;;;;;;35.50;32.25;;;;;6.08;77.03;103001.22;5007413;28;45914;-79
2022/01/23 12:29:55;;;;;;;;;26.00;22.50;;;;;6.09;77.02;102978.28;5005367;28;46187;-80
2022/01/23 12:32:29;;;;;;;;;35.50;33.00;;;;;6.21;77.01;102985.50;5009161;28;45386;-81
2022/01/23 12:35:00;;;;;;;;;36.00;33.75;;;;;6.21;77.00;102977.56;4989045;28;45549;-79
2022/01/23 12:37:47;;;;;;;;;34.50;29.00;;;;;6.22;76.70;102966.06;5003668;28;45463;-79
2022/01/23 12:40:31;;;;;;;;;32.25;27.25;;;;;6.25;76.98;102959.72;5002259;28;46451;-78
2022/01/23 12:43:18;;;;;;;;;31.00;29.25;;;;;6.14;76.13;102942.75;4981596;28;46320;-79
2022/01/23 12:46:00;;;;;;;;;33.00;23.50;;;;;6.35;76.43;102974.13;4986494;28;45363;-80
2022/01/23 12:48:26;;;;;;;;;30.50;30.25;;;;;6.31;76.52;102975.22;5005935;28;45444;-80
2022/01/23 12:50:58;;;;;;;;;32.75;28.25;;;;;6.32;76.56;102966.38;5010198;28;46125;-80
2022/01/23 12:53:51;;;;;;;;;32.00;25.00;;;;;6.32;75.71;102961.09;5008291;28;45345;-79
2022/01/23 12:56:20;;;;;;;;;21.67;20.33;;;;;6.21;76.46;102939.75;5010286;28;45418;-80
2022/01/23 12:58:51;;;;;;;;;32.33;28.67;;;;;6.30;76.34;102944.47;4978880;28;45455;-81
2022/01/23 13:01:19;;;;;;;;;39.50;34.75;;;;;6.34;76.25;102948.63;4998803;28;45316;-80
2022/01/23 13:03:51;;;;;;;;;28.00;25.33;;;;;6.29;76.47;102929.59;4998644;28;45364;-81
2022/01/23 13:06:17;;;;;;;;;24.33;24.00;;;;;6.37;76.46;102944.97;4999296;28;45218;-80
2022/01/23 13:08:50;;;;;;;;;22.33;21.33;;;;;6.31;76.12;102938.25;5005595;28;46063;-78
2022/01/23 13:11:45;;;;;;;;;27.67;22.00;;;;;6.29;76.53;102924.31;4996845;28;45397;-76
2022/01/23 13:14:04;;;;;;;;;20.67;19.67;;;;;6.34;76.14;102932.78;4995175;28;45408;-77
2022/01/23 13:16:48;;;;;;;;;26.00;21.00;;;;;6.38;76.23;102938.75;5000264;28;45323;-79
2022/01/23 13:19:58;;;;;;;;;22.00;22.00;;;;;6.38;76.22;102921.09;4983286;28;46314;-75
2022/01/23 13:30:18;;;;;;;;;25.00;21.75;;;;;6.66;76.33;102929.13;5000630;28;44904;-78
2022/01/23 13:32:47;;;;;;;;;25.00;23.33;;;;;6.69;76.49;102921.88;4998187;28;46013;-78
2022/01/23 13:35:15;;;;;;;;;23.00;22.00;;;;;6.74;75.76;102920.75;4994228;28;45500;-76
2022/01/23 13:37:58;;;;;;;;;23.33;23.00;;;;;6.68;76.01;102899.00;4998322;28;45413;-78
2022/01/23 13:40:34;;;;;;;;;22.75;22.25;;;;;6.44;76.02;102859.13;4998450;28;46581;-77
2022/01/23 13:49:27;;;;;;;;;18.00;14.50;;;;;6.76;75.43;102889.78;4999637;28;45460;-76
2022/01/23 14:02:29;;;;;;;;;28.50;23.75;;;;;6.77;75.17;102865.88;4980165;28;45435;-77
2022/01/23 14:05:04;;;;;;;;;27.00;24.00;;;;;6.83;75.01;102864.66;5003926;28;45979;-78
2022/01/23 14:07:30;;;;;;;;;28.00;25.00;;;;;6.86;74.99;102863.63;5000462;28;45403;-77
2022/01/23 14:09:59;;;;;;;;;30.00;27.50;;;;;6.86;75.00;102861.81;5007458;28;45452;-77
2022/01/23 14:12:26;;;;;;;;;28.25;24.50;;;;;6.76;74.43;102852.78;5005238;28;45148;-77
2022/01/23 14:15:08;;;;;;;;;27.00;24.75;;;;;6.83;75.30;102864.66;5001222;28;47433;-78
2022/01/23 14:17:39;;;;;;;;;28.00;24.00;;;;;6.78;74.80;102840.31;4988472;28;45839;-78
2022/01/23 14:20:16;;;;;;;;;27.00;25.33;;;;;6.91;75.19;102856.22;5000007;28;45483;-77
2022/01/23 14:22:47;;;;;;;;;30.00;27.33;;;;;6.97;74.86;102855.84;5001568;28;45429;-77
2022/01/23 14:25:17;;;;;;;;;35.00;29.67;;;;;6.92;74.52;102848.19;4996755;28;45507;-77
2022/01/23 14:28:05;;;;;;;;;32.33;27.33;;;;;7.04;74.80;102858.94;4987757;28;45779;-77
2022/01/23 14:30:31;;;;;;;;;29.33;26.67;;;;;7.03;74.74;102850.16;4989277;28;45366;-77
2022/01/23 14:33:05;;;;;;;;;26.33;23.67;;;;;7.10;74.45;102855.91;4997027;28;45408;-76
2022/01/23 14:35:32;;;;;;;;;26.33;25.33;;;;;6.98;74.91;102836.41;4976644;28;47165;-76
2022/01/23 14:38:19;;;;;;;;;22.67;22.67;;;;;7.04;74.47;102851.84;5002909;28;45262;-76
2022/01/23 14:41:09;;;;;;;;;27.67;23.00;;;;;6.99;74.24;102848.66;4992973;28;45323;-77
2022/01/23 14:43:39;;;;;;;;;21.00;20.00;;;;;6.93;74.79;102844.63;4999078;28;45287;-77
2022/01/23 14:46:06;;;;;;;;;24.67;20.00;;;;;6.90;74.60;102836.03;5000487;28;45483;-75
2022/01/23 14:48:38;;;;;;;;;29.33;22.33;;;;;6.81;74.67;102829.53;5000831;28;45453;-76
2022/01/23 14:51:05;;;;;;;;;22.50;22.50;;;;;6.92;74.84;102848.19;5000967;28;45260;-76
2022/01/23 14:53:34;;;;;;;;;37.00;33.75;;;;;6.87;74.75;102842.38;5003740;28;45267;-77
2022/01/23 14:56:02;;;;;;;;;21.33;20.00;;;;;6.88;74.71;102837.94;5001391;28;45334;-77